CheckWX is a tool to help pilots better visualize weather data.  It is not intended as a substitute for an official pre-flight weather briefing.

00:04:42 UTC

6I2 METAR
Lebanon Springfield-George Hoerter Field Airport
Springfield, Kentucky, USA
Current

35 mins ago

K6I2 242330Z AUTO 25005KT 10SM CLR 30/18 A3010 RMK AO2
Observed
May-24 @ 23:30 UTC
Wind
  • 250° at 5 KTS
Visibility
10 SM
Flight Rules
VFR
Cloud Levels
  • Clear skies
Temperature
30°C / 86°F
Dewpoint
18°C / 64°F
Heat Index
31°C / 88°F
Humidity
49%
Altimeter
30.1" Hg
Pressure
1019.32 hPa
Previous

55 mins ago

K6I2 242310Z AUTO 25004KT 10SM CLR 30/18 A3011 RMK AO2
Observed
May-24 @ 23:10 UTC
Wind
  • 250° at 4 KTS
Visibility
10 SM
Flight Rules
VFR
Cloud Levels
  • Clear skies
Temperature
30°C / 86°F
Dewpoint
18°C / 64°F
Heat Index
31°C / 88°F
Humidity
49%
Altimeter
30.11" Hg
Pressure
1019.62 hPa
Previous

1 hour ago

K6I2 242250Z AUTO 28006KT 10SM CLR 30/18 A3011 RMK AO2
Observed
May-24 @ 22:50 UTC
Wind
  • 280° at 6 KTS
Visibility
10 SM
Flight Rules
VFR
Cloud Levels
  • Clear skies
Temperature
30°C / 86°F
Dewpoint
18°C / 64°F
Heat Index
31°C / 88°F
Humidity
49%
Altimeter
30.11" Hg
Pressure
1019.62 hPa